sensor_id;sensor_type;location;lat;lon;timestamp;pressure;altitude;pressure_sealevel;temperature;humidity
7990;BME280;4040;42.848;23.034;2023-10-09T00:01:53;95360.97;;;17.18;100.00
7990;BME280;4040;42.848;23.034;2023-10-09T00:07:42;95357.00;;;17.07;100.00
7990;BME280;4040;42.848;23.034;2023-10-09T00:13:33;95366.00;;;16.75;100.00
7990;BME280;4040;42.848;23.034;2023-10-09T00:19:23;95362.09;;;16.60;100.00
7990;BME280;4040;42.848;23.034;2023-10-09T00:25:17;95358.03;;;16.36;100.00
7990;BME280;4040;42.848;23.034;2023-10-09T00:31:17;95368.84;;;16.20;100.00
7990;BME280;4040;42.848;23.034;2023-10-09T00:37:15;95374.94;;;16.08;100.00
7990;BME280;4040;42.848;23.034;2023-10-09T00:43:05;95366.44;;;15.90;100.00
7990;BME280;4040;42.848;23.034;2023-10-09T00:49:00;95377.59;;;15.76;100.00
7990;BME280;4040;42.848;23.034;2023-10-09T00:54:51;95388.75;;;15.62;100.00
7990;BME280;4040;42.848;23.034;2023-10-09T01:00:41;95407.69;;;15.46;100.00
7990;BME280;4040;42.848;23.034;2023-10-09T01:11:02;95438.06;;;15.19;100.00
7990;BME280;4040;42.848;23.034;2023-10-09T01:16:56;95453.63;;;14.92;100.00
7990;BME280;4040;42.848;23.034;2023-10-09T01:19:26;95466.84;;;14.90;100.00
7990;BME280;4040;42.848;23.034;2023-10-09T01:25:16;95460.97;;;14.68;100.00
7990;BME280;4040;42.848;23.034;2023-10-09T01:31:07;95477.19;;;14.72;100.00
7990;BME280;4040;42.848;23.034;2023-10-09T01:33:35;95467.63;;;14.64;100.00
7990;BME280;4040;42.848;23.034;2023-10-09T01:39:24;95436.72;;;14.35;100.00
7990;BME280;4040;42.848;23.034;2023-10-09T01:45:17;95468.63;;;14.24;100.00
7990;BME280;4040;42.848;23.034;2023-10-09T01:51:15;95487.28;;;14.15;100.00
7990;BME280;4040;42.848;23.034;2023-10-09T01:53:44;95475.69;;;14.14;100.00
7990;BME280;4040;42.848;23.034;2023-10-09T01:59:35;95482.44;;;14.03;100.00
7990;BME280;4040;42.848;23.034;2023-10-09T02:05:26;95494.66;;;13.81;100.00
7990;BME280;4040;42.848;23.034;2023-10-09T02:11:20;95507.22;;;13.64;100.00
7990;BME280;4040;42.848;23.034;2023-10-09T02:17:23;95483.28;;;13.63;100.00
7990;BME280;4040;42.848;23.034;2023-10-09T02:23:18;95496.41;;;13.64;100.00
7990;BME280;4040;42.848;23.034;2023-10-09T02:29:12;95491.03;;;13.61;100.00
7990;BME280;4040;42.848;23.034;2023-10-09T02:35:06;95512.84;;;13.47;100.00
7990;BME280;4040;42.848;23.034;2023-10-09T02:41:09;95524.47;;;13.44;100.00
7990;BME280;4040;42.848;23.034;2023-10-09T02:47:09;95519.22;;;13.30;100.00
7990;BME280;4040;42.848;23.034;2023-10-09T02:53:05;95544.97;;;13.01;100.00
7990;BME280;4040;42.848;23.034;2023-10-09T02:58:58;95540.38;;;12.87;100.00
7990;BME280;4040;42.848;23.034;2023-10-09T03:04:53;95545.84;;;12.80;100.00
7990;BME280;4040;42.848;23.034;2023-10-09T03:10:42;95549.72;;;12.79;100.00
7990;BME280;4040;42.848;23.034;2023-10-09T03:16:33;95561.38;;;12.66;100.00
7990;BME280;4040;42.848;23.034;2023-10-09T03:22:23;95578.50;;;12.42;100.00
7990;BME280;4040;42.848;23.034;2023-10-09T03:28:12;95582.91;;;12.15;100.00
7990;BME280;4040;42.848;23.034;2023-10-09T03:34:04;95565.19;;;11.97;100.00
7990;BME280;4040;42.848;23.034;2023-10-09T03:39:53;95575.69;;;11.77;100.00
7990;BME280;4040;42.848;23.034;2023-10-09T03:45:42;95581.13;;;11.63;100.00
7990;BME280;4040;42.848;23.034;2023-10-09T03:48:18;95557.25;;;11.37;100.00
7990;BME280;4040;42.848;23.034;2023-10-09T03:54:14;95593.47;;;11.43;100.00
7990;BME280;4040;42.848;23.034;2023-10-09T04:00:03;95586.53;;;11.28;100.00
7990;BME280;4040;42.848;23.034;2023-10-09T04:06:13;95580.34;;;11.10;100.00
7990;BME280;4040;42.848;23.034;2023-10-09T04:12:06;95581.16;;;11.00;100.00
7990;BME280;4040;42.848;23.034;2023-10-09T04:18:11;95589.59;;;10.95;100.00
7990;BME280;4040;42.848;23.034;2023-10-09T04:24:07;95591.16;;;10.96;100.00
7990;BME280;4040;42.848;23.034;2023-10-09T04:30:12;95605.78;;;10.95;100.00
7990;BME280;4040;42.848;23.034;2023-10-09T04:36:03;95592.66;;;10.80;100.00
7990;BME280;4040;42.848;23.034;2023-10-09T04:38:42;95601.91;;;10.79;100.00
7990;BME280;4040;42.848;23.034;2023-10-09T04:44:43;95604.19;;;10.59;100.00
7990;BME280;4040;42.848;23.034;2023-10-09T04:50:51;95610.38;;;10.70;100.00
7990;BME280;4040;42.848;23.034;2023-10-09T04:53:36;95595.75;;;10.71;100.00
7990;BME280;4040;42.848;23.034;2023-10-09T04:59:35;95608.88;;;11.04;100.00
7990;BME280;4040;42.848;23.034;2023-10-09T05:05:33;95617.34;;;11.34;100.00
7990;BME280;4040;42.848;23.034;2023-10-09T05:11:47;95615.41;;;11.59;100.00
7990;BME280;4040;42.848;23.034;2023-10-09T05:17:43;95627.28;;;12.00;100.00
7990;BME280;4040;42.848;23.034;2023-10-09T05:23:43;95635.84;;;13.83;100.00
7990;BME280;4040;42.848;23.034;2023-10-09T05:29:37;95631.59;;;15.84;96.95
7990;BME280;4040;42.848;23.034;2023-10-09T05:35:46;95653.94;;;17.48;77.58
7990;BME280;4040;42.848;23.034;2023-10-09T05:41:52;95661.63;;;18.29;71.07
7990;BME280;4040;42.848;23.034;2023-10-09T05:47:49;95664.63;;;18.63;68.44
7990;BME280;4040;42.848;23.034;2023-10-09T05:53:40;95686.50;;;18.15;67.94
7990;BME280;4040;42.848;23.034;2023-10-09T05:59:59;95703.56;;;17.87;66.99
7990;BME280;4040;42.848;23.034;2023-10-09T06:06:06;95708.25;;;19.45;64.63
7990;BME280;4040;42.848;23.034;2023-10-09T06:11:55;95712.13;;;20.44;58.83
7990;BME280;4040;42.848;23.034;2023-10-09T06:18:04;95722.56;;;22.44;53.19
7990;BME280;4040;42.848;23.034;2023-10-09T06:24:08;95724.00;;;24.97;43.58
7990;BME280;4040;42.848;23.034;2023-10-09T06:30:02;95707.53;;;24.50;40.33
7990;BME280;4040;42.848;23.034;2023-10-09T06:36:12;95729.31;;;25.96;37.92
7990;BME280;4040;42.848;23.034;2023-10-09T06:42:06;95729.09;;;25.13;37.50
7990;BME280;4040;42.848;23.034;2023-10-09T06:48:17;95716.00;;;25.22;37.10
7990;BME280;4040;42.848;23.034;2023-10-09T06:54:24;95718.13;;;23.77;37.94
7990;BME280;4040;42.848;23.034;2023-10-09T07:00:18;95731.59;;;24.17;38.21
7990;BME280;4040;42.848;23.034;2023-10-09T07:02:59;95729.84;;;23.96;37.49
7990;BME280;4040;42.848;23.034;2023-10-09T07:09:28;95742.22;;;22.42;38.57
7990;BME280;4040;42.848;23.034;2023-10-09T07:15:31;95729.41;;;24.21;36.57
7990;BME280;4040;42.848;23.034;2023-10-09T07:21:38;95738.25;;;24.57;35.61
7990;BME280;4040;42.848;23.034;2023-10-09T07:27:38;95729.25;;;25.33;34.55
7990;BME280;4040;42.848;23.034;2023-10-09T07:30:11;95729.81;;;25.80;33.75
7990;BME280;4040;42.848;23.034;2023-10-09T07:36:15;95731.19;;;26.53;32.85
7990;BME280;4040;42.848;23.034;2023-10-09T07:42:16;95737.09;;;26.46;32.30
7990;BME280;4040;42.848;23.034;2023-10-09T07:48:13;95732.56;;;26.63;33.22
7990;BME280;4040;42.848;23.034;2023-10-09T07:54:05;95732.63;;;26.15;32.61
7990;BME280;4040;42.848;23.034;2023-10-09T07:59:55;95726.84;;;26.33;33.10
7990;BME280;4040;42.848;23.034;2023-10-09T08:05:48;95708.47;;;28.53;31.05
7990;BME280;4040;42.848;23.034;2023-10-09T08:16:02;95703.47;;;27.33;29.66
7990;BME280;4040;42.848;23.034;2023-10-09T08:21:51;95686.84;;;28.21;28.80
7990;BME280;4040;42.848;23.034;2023-10-09T08:24:43;95691.34;;;29.35;28.03
7990;BME280;4040;42.848;23.034;2023-10-09T08:30:36;95683.28;;;29.21;26.71
7990;BME280;4040;42.848;23.034;2023-10-09T08:33:16;95684.50;;;29.14;27.68
7990;BME280;4040;42.848;23.034;2023-10-09T08:36:07;95676.59;;;28.32;26.83
7990;BME280;4040;42.848;23.034;2023-10-09T08:41:56;95682.25;;;28.49;27.63
7990;BME280;4040;42.848;23.034;2023-10-09T08:47:46;95673.16;;;28.48;27.54
7990;BME280;4040;42.848;23.034;2023-10-09T08:53:39;95679.25;;;29.22;26.63
7990;BME280;4040;42.848;23.034;2023-10-09T08:59:30;95684.09;;;30.31;25.97
7990;BME280;4040;42.848;23.034;2023-10-09T09:05:20;95681.06;;;29.96;24.09
7990;BME280;4040;42.848;23.034;2023-10-09T09:11:13;95689.06;;;31.98;23.25
7990;BME280;4040;42.848;23.034;2023-10-09T09:17:04;95681.56;;;30.22;23.39
7990;BME280;4040;42.848;23.034;2023-10-09T09:22:58;95665.91;;;30.08;24.48
7990;BME280;4040;42.848;23.034;2023-10-09T09:28:53;95649.47;;;32.52;21.56
7990;BME280;4040;42.848;23.034;2023-10-09T09:34:47;95644.09;;;30.45;23.16
7990;BME280;4040;42.848;23.034;2023-10-09T09:40:36;95657.31;;;30.22;24.06
7990;BME280;4040;42.848;23.034;2023-10-09T09:46:32;95655.78;;;29.17;24.30
7990;BME280;4040;42.848;23.034;2023-10-09T09:49:00;95638.78;;;30.47;24.60
7990;BME280;4040;42.848;23.034;2023-10-09T09:54:50;95638.34;;;32.29;22.09
7990;BME280;4040;42.848;23.034;2023-10-09T10:00:39;95615.41;;;32.59;21.74
7990;BME280;4040;42.848;23.034;2023-10-09T10:06:44;95611.84;;;34.40;20.54
7990;BME280;4040;42.848;23.034;2023-10-09T10:16:17;95600.47;;;30.86;22.23
7990;BME280;4040;42.848;23.034;2023-10-09T10:22:27;95572.88;;;31.58;22.02
7990;BME280;4040;42.848;23.034;2023-10-09T10:28:18;95547.16;;;32.00;19.28
7990;BME280;4040;42.848;23.034;2023-10-09T10:34:15;95555.59;;;32.36;21.78
7990;BME280;4040;42.848;23.034;2023-10-09T10:40:12;95543.16;;;33.11;21.00
7990;BME280;4040;42.848;23.034;2023-10-09T10:46:22;95531.50;;;31.43;21.19
7990;BME280;4040;42.848;23.034;2023-10-09T10:52:28;95529.47;;;32.16;20.61
7990;BME280;4040;42.848;23.034;2023-10-09T10:55:14;95524.56;;;32.27;20.85
7990;BME280;4040;42.848;23.034;2023-10-09T11:01:05;95515.41;;;31.84;21.29
7990;BME280;4040;42.848;23.034;2023-10-09T11:07:03;95504.72;;;28.10;24.65
7990;BME280;4040;42.848;23.034;2023-10-09T11:16:29;95510.66;;;22.63;29.09
7990;BME280;4040;42.848;23.034;2023-10-09T11:22:30;95502.50;;;22.00;31.40
7990;BME280;4040;42.848;23.034;2023-10-09T11:25:02;95500.34;;;22.13;31.75
7990;BME280;4040;42.848;23.034;2023-10-09T11:31:06;95476.22;;;23.27;29.27
7990;BME280;4040;42.848;23.034;2023-10-09T11:33:47;95466.66;;;27.10;27.36
7990;BME280;4040;42.848;23.034;2023-10-09T11:39:36;95458.00;;;30.17;23.27
7990;BME280;4040;42.848;23.034;2023-10-09T11:45:37;95453.25;;;29.17;24.37
7990;BME280;4040;42.848;23.034;2023-10-09T11:51:28;95462.66;;;24.23;27.54
7990;BME280;4040;42.848;23.034;2023-10-09T11:57:18;95434.50;;;22.13;29.13
7990;BME280;4040;42.848;23.034;2023-10-09T11:59:54;95440.31;;;21.97;29.43
7990;BME280;4040;42.848;23.034;2023-10-09T12:05:43;95427.41;;;21.80;30.51
7990;BME280;4040;42.848;23.034;2023-10-09T12:11:33;95424.34;;;21.78;30.67
7990;BME280;4040;42.848;23.034;2023-10-09T12:17:22;95414.13;;;21.69;30.49
7990;BME280;4040;42.848;23.034;2023-10-09T12:23:13;95400.44;;;21.69;31.28
7990;BME280;4040;42.848;23.034;2023-10-09T12:25:40;95397.66;;;21.60;29.06
7990;BME280;4040;42.848;23.034;2023-10-09T12:28:12;95401.31;;;21.30;29.55
7990;BME280;4040;42.848;23.034;2023-10-09T12:34:01;95396.25;;;21.02;30.73
7990;BME280;4040;42.848;23.034;2023-10-09T12:39:50;95385.16;;;21.05;29.77
7990;BME280;4040;42.848;23.034;2023-10-09T12:45:44;95388.81;;;21.02;30.64
7990;BME280;4040;42.848;23.034;2023-10-09T12:51:33;95374.81;;;21.18;31.16
7990;BME280;4040;42.848;23.034;2023-10-09T12:54:00;95367.22;;;21.22;29.96
7990;BME280;4040;42.848;23.034;2023-10-09T12:59:49;95363.56;;;21.16;30.86
7990;BME280;4040;42.848;23.034;2023-10-09T13:05:40;95350.00;;;21.13;30.99
7990;BME280;4040;42.848;23.034;2023-10-09T13:11:39;95340.38;;;20.90;32.10
7990;BME280;4040;42.848;23.034;2023-10-09T13:17:29;95335.19;;;20.74;31.96
7990;BME280;4040;42.848;23.034;2023-10-09T13:19:57;95328.50;;;20.84;32.63
7990;BME280;4040;42.848;23.034;2023-10-09T13:25:48;95265.81;;;20.68;30.63
7990;BME280;4040;42.848;23.034;2023-10-09T13:31:36;95316.06;;;21.10;30.93
7990;BME280;4040;42.848;23.034;2023-10-09T13:34:12;95318.50;;;21.08;31.61
7990;BME280;4040;42.848;23.034;2023-10-09T13:40:03;95305.41;;;21.21;30.77
7990;BME280;4040;42.848;23.034;2023-10-09T13:45:58;95300.09;;;20.91;31.09
7990;BME280;4040;42.848;23.034;2023-10-09T13:48:29;95298.72;;;20.95;30.65
7990;BME280;4040;42.848;23.034;2023-10-09T13:54:26;95299.66;;;20.92;31.47
7990;BME280;4040;42.848;23.034;2023-10-09T14:00:26;95300.25;;;20.96;31.40
7990;BME280;4040;42.848;23.034;2023-10-09T14:03:01;95293.84;;;20.99;31.93
7990;BME280;4040;42.848;23.034;2023-10-09T14:08:59;95281.38;;;20.89;31.90
7990;BME280;4040;42.848;23.034;2023-10-09T14:18:34;95290.09;;;20.49;32.67
7990;BME280;4040;42.848;23.034;2023-10-09T14:24:23;95280.63;;;20.23;33.60
7990;BME280;4040;42.848;23.034;2023-10-09T14:30:20;95277.59;;;20.21;33.80
7990;BME280;4040;42.848;23.034;2023-10-09T14:36:19;95265.41;;;20.13;34.82
7990;BME280;4040;42.848;23.034;2023-10-09T14:42:08;95265.66;;;20.06;34.84
7990;BME280;4040;42.848;23.034;2023-10-09T14:47:58;95260.75;;;19.92;35.68
7990;BME280;4040;42.848;23.034;2023-10-09T14:50:26;95258.75;;;19.83;36.97
7990;BME280;4040;42.848;23.034;2023-10-09T14:52:55;95250.38;;;19.78;36.71
7990;BME280;4040;42.848;23.034;2023-10-09T14:58:44;95251.78;;;19.61;37.15
7990;BME280;4040;42.848;23.034;2023-10-09T15:04:33;95246.19;;;19.64;37.87
7990;BME280;4040;42.848;23.034;2023-10-09T15:10:25;95243.41;;;19.55;38.64
7990;BME280;4040;42.848;23.034;2023-10-09T15:19:46;95257.09;;;19.34;40.10
7990;BME280;4040;42.848;23.034;2023-10-09T15:25:36;95259.16;;;19.21;41.16
7990;BME280;4040;42.848;23.034;2023-10-09T15:31:26;95258.66;;;19.01;42.38
7990;BME280;4040;42.848;23.034;2023-10-09T15:33:53;95226.94;;;18.73;42.46
7990;BME280;4040;42.848;23.034;2023-10-09T15:39:42;95226.69;;;18.46;43.57
7990;BME280;4040;42.848;23.034;2023-10-09T15:45:41;95239.13;;;18.47;43.68
7990;BME280;4040;42.848;23.034;2023-10-09T15:51:31;95248.13;;;18.10;45.09
7990;BME280;4040;42.848;23.034;2023-10-09T15:57:20;95258.84;;;17.92;45.91
7990;BME280;4040;42.848;23.034;2023-10-09T16:03:11;95243.91;;;17.59;46.85
7990;BME280;4040;42.848;23.034;2023-10-09T16:09:01;95196.63;;;17.00;48.63
7990;BME280;4040;42.848;23.034;2023-10-09T16:14:50;95251.59;;;16.95;49.02
7990;BME280;4040;42.848;23.034;2023-10-09T16:20:42;95269.22;;;16.90;50.53
7990;BME280;4040;42.848;23.034;2023-10-09T16:26:33;95263.28;;;16.51;50.59
7990;BME280;4040;42.848;23.034;2023-10-09T16:32:26;95264.06;;;16.03;53.05
7990;BME280;4040;42.848;23.034;2023-10-09T16:38:17;95257.41;;;16.20;52.86
7990;BME280;4040;42.848;23.034;2023-10-09T16:44:09;95266.44;;;16.01;53.53
7990;BME280;4040;42.848;23.034;2023-10-09T16:49:58;95266.06;;;15.67;55.61
7990;BME280;4040;42.848;23.034;2023-10-09T16:55:49;95271.16;;;15.11;59.34
7990;BME280;4040;42.848;23.034;2023-10-09T17:01:44;95265.53;;;14.82;65.16
7990;BME280;4040;42.848;23.034;2023-10-09T17:04:11;95271.81;;;14.76;66.47
7990;BME280;4040;42.848;23.034;2023-10-09T17:10:04;95259.75;;;14.38;68.13
7990;BME280;4040;42.848;23.034;2023-10-09T17:16:03;95263.19;;;14.19;70.52
7990;BME280;4040;42.848;23.034;2023-10-09T17:21:58;95211.22;;;13.28;74.78
7990;BME280;4040;42.848;23.034;2023-10-09T17:27:57;95266.63;;;13.17;77.24
7990;BME280;4040;42.848;23.034;2023-10-09T17:33:48;95255.78;;;13.17;80.15
7990;BME280;4040;42.848;23.034;2023-10-09T17:39:37;95242.00;;;13.08;82.79
7990;BME280;4040;42.848;23.034;2023-10-09T17:45:26;95238.94;;;13.06;85.54
7990;BME280;4040;42.848;23.034;2023-10-09T17:51:17;95215.69;;;13.12;83.59
7990;BME280;4040;42.848;23.034;2023-10-09T17:57:06;95203.53;;;12.97;85.27
7990;BME280;4040;42.848;23.034;2023-10-09T18:02:55;95226.03;;;12.87;91.65
7990;BME280;4040;42.848;23.034;2023-10-09T18:08:45;95223.41;;;12.47;94.74
7990;BME280;4040;42.848;23.034;2023-10-09T18:14:35;95234.94;;;12.17;97.28
7990;BME280;4040;42.848;23.034;2023-10-09T18:20:26;95227.75;;;12.00;100.00
7990;BME280;4040;42.848;23.034;2023-10-09T18:26:18;95222.63;;;11.69;100.00
7990;BME280;4040;42.848;23.034;2023-10-09T18:32:08;95215.44;;;11.48;100.00
7990;BME280;4040;42.848;23.034;2023-10-09T18:37:57;95234.69;;;11.50;100.00
7990;BME280;4040;42.848;23.034;2023-10-09T18:43:49;95234.69;;;11.47;100.00
7990;BME280;4040;42.848;23.034;2023-10-09T18:49:38;95232.88;;;11.33;100.00
7990;BME280;4040;42.848;23.034;2023-10-09T18:55:28;95226.84;;;11.12;100.00
7990;BME280;4040;42.848;23.034;2023-10-09T19:01:20;95236.69;;;11.39;100.00
7990;BME280;4040;42.848;23.034;2023-10-09T19:07:10;95225.41;;;11.55;100.00
7990;BME280;4040;42.848;23.034;2023-10-09T19:12:59;95240.47;;;11.49;100.00
7990;BME280;4040;42.848;23.034;2023-10-09T19:23:18;95249.88;;;11.23;100.00
7990;BME280;4040;42.848;23.034;2023-10-09T19:29:07;95251.84;;;11.16;100.00
7990;BME280;4040;42.848;23.034;2023-10-09T19:34:58;95247.69;;;11.04;100.00
7990;BME280;4040;42.848;23.034;2023-10-09T19:40:51;95239.56;;;11.11;100.00
7990;BME280;4040;42.848;23.034;2023-10-09T19:46:40;95241.56;;;11.00;100.00
7990;BME280;4040;42.848;23.034;2023-10-09T19:52:31;95246.19;;;10.96;100.00
7990;BME280;4040;42.848;23.034;2023-10-09T19:58:21;95258.91;;;10.89;100.00
7990;BME280;4040;42.848;23.034;2023-10-09T20:04:11;95269.34;;;10.83;100.00
7990;BME280;4040;42.848;23.034;2023-10-09T20:10:03;95245.56;;;10.57;100.00
7990;BME280;4040;42.848;23.034;2023-10-09T20:15:56;95263.66;;;10.60;100.00
7990;BME280;4040;42.848;23.034;2023-10-09T20:26:07;95233.16;;;10.77;100.00
7990;BME280;4040;42.848;23.034;2023-10-09T20:32:03;95249.34;;;10.77;100.00
7990;BME280;4040;42.848;23.034;2023-10-09T20:37:53;95259.75;;;10.72;100.00
7990;BME280;4040;42.848;23.034;2023-10-09T20:43:42;95275.91;;;10.75;100.00
7990;BME280;4040;42.848;23.034;2023-10-09T20:49:43;95277.13;;;10.53;100.00
7990;BME280;4040;42.848;23.034;2023-10-09T20:55:33;95276.78;;;10.37;100.00
7990;BME280;4040;42.848;23.034;2023-10-09T21:01:22;95266.78;;;10.34;100.00
7990;BME280;4040;42.848;23.034;2023-10-09T21:03:50;95254.84;;;10.42;100.00
7990;BME280;4040;42.848;23.034;2023-10-09T21:09:40;95263.25;;;10.65;100.00
7990;BME280;4040;42.848;23.034;2023-10-09T21:15:30;95243.63;;;10.61;100.00
7990;BME280;4040;42.848;23.034;2023-10-09T21:21:22;95254.91;;;10.28;100.00
7990;BME280;4040;42.848;23.034;2023-10-09T21:27:12;95249.50;;;10.28;100.00
7990;BME280;4040;42.848;23.034;2023-10-09T21:33:04;95257.84;;;10.65;100.00
7990;BME280;4040;42.848;23.034;2023-10-09T21:38:54;95244.66;;;10.88;100.00
7990;BME280;4040;42.848;23.034;2023-10-09T21:44:45;95243.91;;;10.91;100.00
7990;BME280;4040;42.848;23.034;2023-10-09T21:50:34;95239.16;;;11.09;100.00
7990;BME280;4040;42.848;23.034;2023-10-09T21:56:27;95248.47;;;11.01;100.00
7990;BME280;4040;42.848;23.034;2023-10-09T22:08:31;95240.44;;;10.91;100.00
7990;BME280;4040;42.848;23.034;2023-10-09T22:14:21;95243.09;;;10.94;100.00
7990;BME280;4040;42.848;23.034;2023-10-09T22:20:12;95244.63;;;10.99;100.00
7990;BME280;4040;42.848;23.034;2023-10-09T22:26:06;95228.50;;;10.88;100.00
7990;BME280;4040;42.848;23.034;2023-10-09T22:32:01;95222.34;;;10.91;100.00
7990;BME280;4040;42.848;23.034;2023-10-09T22:37:50;95212.38;;;10.85;100.00
7990;BME280;4040;42.848;23.034;2023-10-09T22:43:43;95214.66;;;10.86;100.00
7990;BME280;4040;42.848;23.034;2023-10-09T22:49:33;95214.28;;;10.84;100.00
7990;BME280;4040;42.848;23.034;2023-10-09T22:55:22;95228.50;;;10.92;100.00
7990;BME280;4040;42.848;23.034;2023-10-09T23:01:20;95228.38;;;11.13;100.00
7990;BME280;4040;42.848;23.034;2023-10-09T23:03:49;95241.50;;;11.07;100.00
7990;BME280;4040;42.848;23.034;2023-10-09T23:09:51;95239.97;;;11.06;100.00
7990;BME280;4040;42.848;23.034;2023-10-09T23:16:02;95245.25;;;11.20;100.00
7990;BME280;4040;42.848;23.034;2023-10-09T23:22:03;95232.09;;;11.36;100.00
7990;BME280;4040;42.848;23.034;2023-10-09T23:27:55;95226.41;;;11.20;100.00
7990;BME280;4040;42.848;23.034;2023-10-09T23:34:01;95225.25;;;11.21;100.00
7990;BME280;4040;42.848;23.034;2023-10-09T23:39:57;95226.81;;;11.15;100.00
7990;BME280;4040;42.848;23.034;2023-10-09T23:45:45;95236.06;;;11.14;100.00
7990;BME280;4040;42.848;23.034;2023-10-09T23:51:34;95229.19;;;11.06;100.00
7990;BME280;4040;42.848;23.034;2023-10-09T23:57:28;95211.84;;;11.07;100.00
